createdAt,value
2022-09-17T00:00:29.441Z,3.27
2022-09-17T00:03:17.153Z,3.80
2022-09-17T00:06:10.023Z,3.10
2022-09-17T00:08:57.036Z,3.83
2022-09-17T00:11:44.245Z,3.10
2022-09-17T00:14:31.284Z,3.77
2022-09-17T00:17:18.268Z,3.80
2022-09-17T00:20:10.183Z,4.00
2022-09-17T00:22:57.172Z,3.50
2022-09-17T00:25:45.859Z,3.80
2022-09-17T00:28:32.957Z,4.60
2022-09-17T00:31:21.436Z,4.40
2022-09-17T00:34:08.939Z,4.83
2022-09-17T00:36:55.865Z,4.57
2022-09-17T00:39:42.801Z,4.90
2022-09-17T00:42:29.924Z,4.53
2022-09-17T00:45:16.941Z,5.37
2022-09-17T00:48:06.464Z,4.93
2022-09-17T00:50:54.576Z,4.87
2022-09-17T00:53:42.435Z,5.40
2022-09-17T00:56:33.568Z,4.70
2022-09-17T00:59:22.974Z,5.20
2022-09-17T01:02:10.767Z,4.77
2022-09-17T01:04:57.875Z,4.87
2022-09-17T01:08:07.855Z,4.30
2022-09-17T01:11:19.080Z,5.07
2022-09-17T01:14:43.577Z,5.43
2022-09-17T01:17:42.727Z,4.87
2022-09-17T01:20:37.051Z,4.50
2022-09-17T01:23:49.682Z,5.20
2022-09-17T01:27:02.897Z,4.60
2022-09-17T01:30:17.888Z,5.07
2022-09-17T01:33:26.400Z,5.30
2022-09-17T01:36:45.160Z,4.47
2022-09-17T01:39:52.940Z,4.43
2022-09-17T01:42:48.412Z,4.70
2022-09-17T01:46:21.779Z,4.73
2022-09-17T01:49:12.548Z,4.87
2022-09-17T01:52:01.912Z,4.20
2022-09-17T01:54:54.613Z,5.30
2022-09-17T01:57:56.118Z,4.83
2022-09-17T02:00:50.962Z,4.30
2022-09-17T02:03:44.629Z,5.10
2022-09-17T02:06:38.192Z,4.60
2022-09-17T02:09:30.167Z,5.17
2022-09-17T02:12:24.493Z,5.00
2022-09-17T02:15:25.133Z,4.57
2022-09-17T02:18:32.286Z,4.67
2022-09-17T02:21:31.505Z,4.77
2022-09-17T02:24:27.165Z,4.20
2022-09-17T02:27:35.763Z,4.00
2022-09-17T02:30:22.887Z,5.47
2022-09-17T02:33:14.092Z,4.60
2022-09-17T02:36:01.936Z,5.40
2022-09-17T02:38:48.881Z,3.83
2022-09-17T02:41:50.854Z,4.27
2022-09-17T02:44:56.525Z,4.10
2022-09-17T02:48:02.472Z,4.07
2022-09-17T02:51:06.132Z,4.40
2022-09-17T02:54:02.296Z,4.10
2022-09-17T02:57:08.825Z,4.17
2022-09-17T03:00:14.351Z,4.20
2022-09-17T03:03:13.959Z,3.90
2022-09-17T03:06:01.545Z,3.63
2022-09-17T03:08:48.636Z,4.30
2022-09-17T03:11:35.653Z,4.13
2022-09-17T03:14:22.611Z,3.63
2022-09-17T03:17:11.318Z,4.23
2022-09-17T03:19:58.250Z,4.13
2022-09-17T03:22:45.201Z,4.17
2022-09-17T03:25:32.102Z,3.83
2022-09-17T03:28:19.154Z,3.93
2022-09-17T03:31:06.307Z,4.03
2022-09-17T03:33:53.447Z,4.77
2022-09-17T03:36:40.433Z,3.47
2022-09-17T03:39:28.338Z,4.40
2022-09-17T03:42:15.472Z,4.37
2022-09-17T03:45:02.622Z,4.47
2022-09-17T03:47:49.931Z,3.70
2022-09-17T03:50:36.853Z,3.90
2022-09-17T03:53:24.077Z,3.60
2022-09-17T03:56:11.034Z,3.67
2022-09-17T03:59:02.269Z,4.40
2022-09-17T04:01:49.373Z,3.40
2022-09-17T04:04:36.814Z,4.43
2022-09-17T04:07:23.813Z,4.10
2022-09-17T04:10:10.972Z,4.77
2022-09-17T04:12:57.947Z,3.43
2022-09-17T04:15:46.225Z,3.70
2022-09-17T04:18:33.762Z,3.47
2022-09-17T04:21:20.758Z,3.97
2022-09-17T04:24:07.983Z,3.60
2022-09-17T04:26:54.912Z,3.43
2022-09-17T04:29:41.916Z,3.90
2022-09-17T04:32:28.830Z,3.10
2022-09-17T04:35:15.953Z,3.67
2022-09-17T04:38:03.305Z,3.07
2022-09-17T04:40:51.636Z,3.33
2022-09-17T04:43:38.551Z,3.40
2022-09-17T04:46:25.589Z,4.10
2022-09-17T04:49:13.170Z,3.03
2022-09-17T04:52:00.125Z,3.47
2022-09-17T04:54:47.047Z,3.70
2022-09-17T04:57:34.026Z,3.70
2022-09-17T05:00:22.821Z,3.77
2022-09-17T05:03:10.034Z,4.00
2022-09-17T05:05:57.315Z,3.60
2022-09-17T05:08:44.218Z,3.17
2022-09-17T05:11:31.173Z,3.13
2022-09-17T05:14:18.137Z,3.40
2022-09-17T05:17:05.210Z,3.07
2022-09-17T05:19:53.458Z,3.40
2022-09-17T05:22:48.127Z,3.67
2022-09-17T05:25:35.170Z,3.30
2022-09-17T05:28:22.173Z,3.30
2022-09-17T05:31:09.387Z,3.43
2022-09-17T05:33:58.291Z,2.80
2022-09-17T05:36:45.364Z,3.10
2022-09-17T05:39:33.221Z,2.90
2022-09-17T05:42:20.274Z,3.27
2022-09-17T05:45:08.072Z,3.10
2022-09-17T05:47:59.836Z,3.20
2022-09-17T05:50:47.187Z,3.37
2022-09-17T05:53:34.143Z,2.90
2022-09-17T05:56:22.069Z,2.90
2022-09-17T05:59:09.060Z,3.60
2022-09-17T06:01:56.070Z,3.53
2022-09-17T06:04:43.032Z,3.70
2022-09-17T06:07:30.282Z,3.50
2022-09-17T06:10:17.487Z,3.73
2022-09-17T06:13:05.126Z,3.20
2022-09-17T06:15:55.146Z,3.80
2022-09-17T06:18:42.073Z,3.87
2022-09-17T06:21:29.065Z,4.50
2022-09-17T06:24:16.701Z,3.27
2022-09-17T06:27:05.247Z,3.07
2022-09-17T06:29:52.232Z,2.97
2022-09-17T06:32:39.228Z,3.50
2022-09-17T06:35:26.190Z,3.97
2022-09-17T06:38:13.629Z,3.10
2022-09-17T06:41:00.908Z,2.70
2022-09-17T06:43:47.866Z,2.47
2022-09-17T06:46:35.125Z,3.47
2022-09-17T06:49:22.419Z,3.03
2022-09-17T06:52:09.700Z,3.60
2022-09-17T06:54:57.564Z,3.27
2022-09-17T06:57:44.867Z,2.77
2022-09-17T07:00:31.875Z,3.20
2022-09-17T07:03:23.142Z,2.70
2022-09-17T07:06:10.964Z,2.90
2022-09-17T07:08:58.590Z,3.17
2022-09-17T07:11:45.581Z,2.57
2022-09-17T07:14:32.482Z,2.53
2022-09-17T07:17:20.958Z,2.43
2022-09-17T07:20:08.555Z,2.77
2022-09-17T07:22:57.537Z,3.47
2022-09-17T07:25:44.506Z,3.17
2022-09-17T07:28:31.486Z,2.53
2022-09-17T07:31:18.473Z,2.23
2022-09-17T07:34:05.440Z,2.53
2022-09-17T07:36:52.334Z,3.07
2022-09-17T07:39:39.447Z,2.77
2022-09-17T07:42:27.574Z,2.40
2022-09-17T07:45:14.657Z,2.80
2022-09-17T07:48:01.679Z,3.00
2022-09-17T07:50:48.686Z,2.50
2022-09-17T07:53:35.617Z,2.07
2022-09-17T07:56:23.326Z,2.50
2022-09-17T07:59:10.392Z,2.33
2022-09-17T08:01:57.586Z,2.47
2022-09-17T08:04:44.697Z,2.40
2022-09-17T08:07:31.735Z,2.53
2022-09-17T08:10:23.049Z,2.20
2022-09-17T08:13:10.100Z,2.53
2022-09-17T08:16:01.633Z,2.27
2022-09-17T08:18:49.862Z,2.47
2022-09-17T08:21:37.382Z,2.47
2022-09-17T08:24:24.402Z,2.73
2022-09-17T08:27:11.307Z,2.70
2022-09-17T08:29:58.664Z,1.90
2022-09-17T08:32:48.681Z,2.00
2022-09-17T08:35:37.306Z,2.70
2022-09-17T08:38:24.558Z,2.27
2022-09-17T08:41:11.549Z,3.10
2022-09-17T08:44:07.475Z,2.20
2022-09-17T08:46:59.672Z,2.57
2022-09-17T08:49:56.049Z,2.40
2022-09-17T08:53:04.446Z,2.40
2022-09-17T08:56:12.570Z,2.47
2022-09-17T08:59:11.061Z,2.20
2022-09-17T09:02:30.182Z,2.37
2022-09-17T09:05:25.608Z,2.37
2022-09-17T09:08:37.373Z,2.97
2022-09-17T09:11:28.007Z,2.80
2022-09-17T09:14:37.385Z,2.33
2022-09-17T09:17:33.375Z,2.20
2022-09-17T09:20:55.698Z,2.50
2022-09-17T09:23:59.103Z,2.33
2022-09-17T09:26:49.314Z,2.10
2022-09-17T09:30:09.323Z,2.20
2022-09-17T09:32:59.086Z,2.50
2022-09-17T09:35:46.119Z,2.80
2022-09-17T09:38:37.660Z,2.57
2022-09-17T09:41:36.897Z,2.33
2022-09-17T09:44:25.362Z,2.30
2022-09-17T09:47:22.937Z,2.53
2022-09-17T09:50:54.788Z,2.00
2022-09-17T09:54:04.081Z,2.50
2022-09-17T09:56:58.011Z,1.90
2022-09-17T09:59:44.938Z,2.00
2022-09-17T10:02:33.666Z,1.90
2022-09-17T10:05:20.802Z,2.37
2022-09-17T10:08:12.869Z,2.50
2022-09-17T10:11:02.771Z,1.77
2022-09-17T10:13:50.161Z,2.17
2022-09-17T10:16:37.118Z,2.20
2022-09-17T10:19:25.674Z,2.03
2022-09-17T10:22:24.633Z,2.17
2022-09-17T10:25:42.683Z,2.07
2022-09-17T10:28:29.629Z,1.87
2022-09-17T10:31:16.733Z,1.87
2022-09-17T10:34:04.671Z,2.23
2022-09-17T10:36:52.096Z,2.23
2022-09-17T10:39:48.651Z,2.30
2022-09-17T10:42:35.551Z,2.20
2022-09-17T10:45:28.053Z,2.10
2022-09-17T10:48:17.819Z,1.90
2022-09-17T10:51:06.868Z,1.67
2022-09-17T10:54:14.424Z,1.93
2022-09-17T10:57:01.997Z,1.90
2022-09-17T11:00:17.044Z,1.80
2022-09-17T11:03:12.971Z,2.23
2022-09-17T11:06:14.170Z,1.90
2022-09-17T11:09:23.911Z,2.10
2022-09-17T11:12:35.294Z,1.37
2022-09-17T11:15:31.262Z,1.93
2022-09-17T11:19:10.654Z,1.70
2022-09-17T11:22:17.760Z,1.90
2022-09-17T11:25:43.032Z,1.93
2022-09-17T11:29:01.134Z,1.70
2022-09-17T11:32:33.422Z,1.93
2022-09-17T11:35:25.674Z,2.67
2022-09-17T11:38:24.331Z,2.20
2022-09-17T11:41:16.865Z,1.73
2022-09-17T11:44:09.500Z,2.17
2022-09-17T11:47:22.687Z,1.40
2022-09-17T11:50:39.673Z,1.67
2022-09-17T11:53:40.967Z,1.90
2022-09-17T11:56:40.972Z,2.00
2022-09-17T11:59:42.692Z,1.47
2022-09-17T12:02:49.952Z,1.80
2022-09-17T12:05:37.548Z,1.60
2022-09-17T12:09:03.126Z,1.77
2022-09-17T12:12:06.484Z,2.13
2022-09-17T12:15:22.733Z,1.50
2022-09-17T12:18:35.133Z,1.90
2022-09-17T12:21:30.690Z,1.43
2022-09-17T12:24:28.665Z,1.87
2022-09-17T12:27:34.260Z,1.40
2022-09-17T12:30:26.494Z,1.83
2022-09-17T12:33:21.113Z,1.87
2022-09-17T12:36:38.508Z,1.70
2022-09-17T12:39:57.890Z,1.83
2022-09-17T12:42:59.892Z,1.40
2022-09-17T12:46:13.170Z,1.47
2022-09-17T12:49:07.035Z,1.40
2022-09-17T12:51:59.972Z,1.50
2022-09-17T12:55:14.951Z,1.63
2022-09-17T12:58:24.541Z,1.20
2022-09-17T13:01:39.885Z,1.40
2022-09-17T13:04:59.603Z,1.40
2022-09-17T13:07:51.363Z,1.43
2022-09-17T13:10:47.339Z,1.73
2022-09-17T13:13:50.054Z,1.70
2022-09-17T13:16:51.977Z,2.03
2022-09-17T13:19:44.489Z,1.80
2022-09-17T13:22:34.593Z,2.10
2022-09-17T13:25:22.368Z,1.80
2022-09-17T13:28:11.650Z,1.50
2022-09-17T13:31:02.186Z,1.60
2022-09-17T13:33:52.175Z,1.50
2022-09-17T13:36:46.003Z,1.40
2022-09-17T13:39:33.187Z,1.70
2022-09-17T13:42:30.109Z,2.03
2022-09-17T13:45:19.085Z,1.43
2022-09-17T13:48:10.191Z,1.60
2022-09-17T13:50:57.389Z,1.27
2022-09-17T13:53:54.568Z,1.17
2022-09-17T13:56:43.720Z,1.17
2022-09-17T13:59:31.501Z,1.10
2022-09-17T14:02:18.853Z,1.50
2022-09-17T14:05:31.395Z,1.30
2022-09-17T14:08:30.567Z,1.40
2022-09-17T14:11:23.758Z,2.07
2022-09-17T14:14:13.394Z,1.77
2022-09-17T14:17:00.382Z,1.53
2022-09-17T14:19:51.640Z,2.00
2022-09-17T14:22:38.909Z,1.80
2022-09-17T14:25:48.197Z,1.87
2022-09-17T14:28:47.869Z,1.77
2022-09-17T14:31:37.028Z,1.73
2022-09-17T14:34:26.366Z,1.80
2022-09-17T14:37:17.338Z,1.70
2022-09-17T14:40:09.981Z,1.70
2022-09-17T14:42:58.392Z,1.57
2022-09-17T14:45:50.301Z,1.70
2022-09-17T14:48:37.357Z,2.07
2022-09-17T14:51:26.764Z,1.80
2022-09-17T14:54:22.717Z,2.10
2022-09-17T14:57:09.574Z,2.20
2022-09-17T15:00:00.698Z,2.20
2022-09-17T15:02:52.783Z,2.03
2022-09-17T15:05:41.143Z,1.30
2022-09-17T15:08:30.310Z,1.53
2022-09-17T15:11:17.659Z,2.13
2022-09-17T15:14:12.973Z,2.00
2022-09-17T15:17:02.237Z,2.63
2022-09-17T15:19:54.705Z,1.80
2022-09-17T15:22:44.382Z,1.50
2022-09-17T15:25:32.421Z,1.70
2022-09-17T15:28:35.090Z,1.60
2022-09-17T15:31:22.650Z,1.80
2022-09-17T15:34:12.766Z,1.67
2022-09-17T15:37:17.861Z,1.47
2022-09-17T15:40:24.153Z,1.50
2022-09-17T15:43:24.356Z,1.60
2022-09-17T15:46:29.395Z,1.63
2022-09-17T15:49:35.001Z,1.80
2022-09-17T15:52:32.827Z,1.70
2022-09-17T15:55:34.726Z,2.03
2022-09-17T15:58:25.737Z,1.45
2022-09-17T16:01:15.736Z,1.37
2022-09-17T16:04:21.240Z,1.90
2022-09-17T16:07:08.164Z,1.50
2022-09-17T16:09:55.201Z,1.70
2022-09-17T16:12:42.322Z,1.40
2022-09-17T16:15:29.288Z,1.83
2022-09-17T16:18:16.366Z,1.70
2022-09-17T16:21:03.419Z,2.03
2022-09-17T16:23:51.694Z,1.97
2022-09-17T16:26:38.975Z,1.67
2022-09-17T16:29:26.018Z,2.27
2022-09-17T16:32:13.194Z,2.07
2022-09-17T16:35:00.263Z,1.73
2022-09-17T16:37:51.706Z,2.30
2022-09-17T16:40:43.612Z,1.83
2022-09-17T16:43:30.622Z,2.10
2022-09-17T16:46:17.633Z,2.00
2022-09-17T16:49:04.638Z,3.07
2022-09-17T16:51:51.555Z,2.40
2022-09-17T16:54:38.581Z,3.03
2022-09-17T16:57:25.549Z,2.43
2022-09-17T17:00:17.194Z,2.30
2022-09-17T17:03:04.730Z,2.40
2022-09-17T17:05:51.676Z,2.63
2022-09-17T17:08:38.609Z,2.10
2022-09-17T17:11:28.050Z,3.57
2022-09-17T17:14:15.117Z,2.60
2022-09-17T17:17:02.785Z,3.20
2022-09-17T17:19:49.805Z,2.37
2022-09-17T17:22:39.522Z,2.77
2022-09-17T17:25:27.129Z,2.33
2022-09-17T17:28:15.166Z,2.60
2022-09-17T17:31:03.436Z,2.77
2022-09-17T17:33:50.426Z,2.83
2022-09-17T17:36:37.377Z,2.60
2022-09-17T17:39:24.582Z,2.60
2022-09-17T17:42:11.529Z,2.93
2022-09-17T17:44:58.539Z,2.53
2022-09-17T17:47:45.481Z,2.63
2022-09-17T17:50:33.368Z,2.07
2022-09-17T17:53:20.344Z,2.17
2022-09-17T17:56:08.525Z,2.53
2022-09-17T17:58:58.476Z,2.47
2022-09-17T18:01:45.660Z,2.40
2022-09-17T18:04:32.698Z,2.40
2022-09-17T18:07:19.701Z,2.20
2022-09-17T18:10:07.346Z,2.17
2022-09-17T18:12:54.416Z,2.40
2022-09-17T18:15:50.870Z,2.63
2022-09-17T18:18:44.468Z,2.97
2022-09-17T18:21:32.110Z,2.73
2022-09-17T18:24:19.134Z,2.37
2022-09-17T18:27:06.107Z,2.37
2022-09-17T18:29:53.050Z,3.17
2022-09-17T18:32:40.153Z,2.27
2022-09-17T18:35:27.419Z,1.90
2022-09-17T18:38:16.086Z,3.00
2022-09-17T18:41:05.198Z,2.47
2022-09-17T18:43:52.273Z,2.23
2022-09-17T18:46:41.111Z,2.73
2022-09-17T18:49:28.219Z,2.03
2022-09-17T18:52:15.393Z,2.53
2022-09-17T18:55:03.421Z,2.27
2022-09-17T18:57:51.534Z,2.17
2022-09-17T19:00:40.918Z,2.50
2022-09-17T19:03:32.155Z,2.60
2022-09-17T19:06:19.183Z,2.93
2022-09-17T19:09:06.406Z,2.80
2022-09-17T19:11:53.355Z,2.57
2022-09-17T19:14:40.342Z,2.20
2022-09-17T19:17:28.105Z,3.70
2022-09-17T19:20:15.600Z,3.00
2022-09-17T19:23:03.510Z,2.40
2022-09-17T19:25:50.450Z,2.57
2022-09-17T19:28:37.452Z,2.97
2022-09-17T19:31:24.825Z,2.60
2022-09-17T19:34:12.574Z,2.47
2022-09-17T19:36:59.845Z,2.33
2022-09-17T19:39:46.890Z,2.30
2022-09-17T19:42:33.825Z,2.43
2022-09-17T19:45:27.195Z,1.87
2022-09-17T19:48:14.182Z,2.43
2022-09-17T19:51:01.281Z,2.57
2022-09-17T19:53:48.296Z,2.23
2022-09-17T19:56:35.217Z,1.90
2022-09-17T19:59:22.184Z,2.13
2022-09-17T20:02:12.193Z,2.77
2022-09-17T20:04:59.290Z,1.80
2022-09-17T20:07:47.966Z,2.00
2022-09-17T20:10:37.430Z,2.03
2022-09-17T20:13:25.427Z,2.00
2022-09-17T20:16:15.823Z,2.00
2022-09-17T20:19:04.500Z,1.80
2022-09-17T20:21:51.592Z,2.20
2022-09-17T20:24:38.540Z,1.90
2022-09-17T20:27:25.526Z,2.23
2022-09-17T20:30:12.709Z,2.20
2022-09-17T20:32:59.717Z,2.00
2022-09-17T20:35:46.665Z,2.03
2022-09-17T20:39:10.194Z,1.90
2022-09-17T20:41:43.056Z,2.17
2022-09-17T20:44:30.714Z,2.50
2022-09-17T20:47:17.631Z,1.57
2022-09-17T20:50:04.852Z,2.90
2022-09-17T20:52:51.806Z,2.20
2022-09-17T20:55:38.783Z,2.10
2022-09-17T20:58:27.479Z,1.87
2022-09-17T21:01:17.861Z,2.07
2022-09-17T21:04:08.701Z,2.10
2022-09-17T21:06:56.414Z,1.60
2022-09-17T21:09:43.366Z,2.43
2022-09-17T21:12:30.290Z,2.07
2022-09-17T21:15:17.226Z,1.77
2022-09-17T21:18:05.610Z,2.10
2022-09-17T21:20:53.436Z,1.87
2022-09-17T21:23:41.802Z,1.63
2022-09-17T21:26:29.235Z,2.03
2022-09-17T21:29:19.000Z,2.37
2022-09-17T21:32:05.980Z,2.30
2022-09-17T21:34:52.895Z,2.30
2022-09-17T21:37:39.998Z,2.37
2022-09-17T21:40:27.029Z,2.23
2022-09-17T21:43:14.026Z,2.00
2022-09-17T21:46:12.329Z,2.00
2022-09-17T21:49:02.258Z,2.60
2022-09-17T21:51:49.701Z,2.30
2022-09-17T21:54:36.764Z,2.03
2022-09-17T21:57:23.729Z,1.97
2022-09-17T22:00:11.873Z,1.87
2022-09-17T22:02:59.280Z,2.40
2022-09-17T22:05:46.241Z,2.20
2022-09-17T22:08:34.275Z,1.70
2022-09-17T22:11:26.426Z,2.20
2022-09-17T22:14:21.865Z,2.60
2022-09-17T22:17:08.824Z,2.27
2022-09-17T22:19:55.711Z,2.07
2022-09-17T22:22:42.693Z,2.03
2022-09-17T22:25:29.625Z,2.17
2022-09-17T22:28:21.472Z,2.23
2022-09-17T22:31:11.248Z,2.10
2022-09-17T22:33:58.368Z,2.93
2022-09-17T22:36:45.908Z,2.03
2022-09-17T22:39:33.094Z,2.10
2022-09-17T22:42:20.053Z,2.17
2022-09-17T22:45:08.255Z,1.97
2022-09-17T22:47:55.269Z,2.40
2022-09-17T22:50:49.609Z,2.63
2022-09-17T22:53:37.742Z,2.20
2022-09-17T22:56:26.068Z,2.27
2022-09-17T22:59:13.368Z,2.37
2022-09-17T23:02:00.414Z,1.80
2022-09-17T23:04:47.766Z,1.93
2022-09-17T23:07:34.729Z,2.37
2022-09-17T23:10:21.702Z,2.77
2022-09-17T23:13:09.577Z,2.20
2022-09-17T23:16:04.044Z,2.30
2022-09-17T23:18:51.191Z,1.90
2022-09-17T23:21:38.834Z,2.13
2022-09-17T23:24:27.021Z,1.60
2022-09-17T23:27:13.974Z,2.23
2022-09-17T23:30:00.977Z,1.70
2022-09-17T23:32:47.868Z,3.03
2022-09-17T23:35:35.214Z,2.00
2022-09-17T23:38:22.106Z,2.20
2022-09-17T23:41:18.273Z,2.67
2022-09-17T23:44:12.087Z,1.70
2022-09-17T23:47:01.769Z,2.43
2022-09-17T23:49:48.774Z,2.03
2022-09-17T23:52:35.741Z,2.43
2022-09-17T23:55:22.642Z,2.00
2022-09-17T23:58:10.255Z,1.63
